Time;durP1;ratioP1;P1;durP2;ratioP2;P2;SDS_P1;SDS_P2;PMS_P1;PMS_P2;Temp;Humidity;BMP_temperature;BMP_pressure;BME280_temperature;BME280_humidity;BME280_pressure;Samples;Min_cycle;Max_cycle;Signal;HPM_P1;HPM_P2
2023/08/25 00:00:32;;;;;;;31.85;27.58;;;19.50;99.90;;;;;;5145725;27;20130;-66
2023/08/25 00:02:58;;;;;;;31.02;26.40;;;19.50;99.90;;;;;;5141841;27;20046;-67
2023/08/25 00:05:24;;;;;;;36.75;28.50;;;19.40;99.90;;;;;;5139423;27;20049;-66
2023/08/25 00:07:49;;;;;;;29.95;26.77;;;19.40;99.90;;;;;;5139314;27;20055;-66
2023/08/25 00:10:15;;;;;;;35.92;29.45;;;19.40;99.90;;;;;;5140762;27;20046;-69
2023/08/25 00:12:41;;;;;;;32.60;29.10;;;19.40;99.90;;;;;;5139892;27;20047;-66
2023/08/25 00:15:08;;;;;;;31.23;27.70;;;19.40;99.90;;;;;;5139641;27;20050;-67
2023/08/25 00:17:33;;;;;;;35.00;27.00;;;19.30;99.90;;;;;;5130539;27;20058;-66
2023/08/25 00:20:00;;;;;;;35.55;28.98;;;19.30;99.90;;;;;;5142762;27;20039;-67
2023/08/25 00:22:27;;;;;;;31.08;27.30;;;19.30;99.90;;;;;;5139403;27;20057;-67
2023/08/25 00:24:55;;;;;;;35.28;29.85;;;19.30;99.90;;;;;;5120628;27;20039;-66
2023/08/25 00:27:21;;;;;;;29.95;26.70;;;19.30;99.90;;;;;;5139921;27;20043;-66
2023/08/25 00:29:47;;;;;;;35.47;30.05;;;19.30;99.90;;;;;;5146676;27;20038;-68
2023/08/25 00:32:13;;;;;;;35.83;29.42;;;19.20;99.90;;;;;;5139162;27;20126;-67
2023/08/25 00:34:39;;;;;;;36.75;30.38;;;19.30;99.90;;;;;;5141411;27;20145;-66
2023/08/25 00:37:05;;;;;;;38.63;34.60;;;19.30;99.90;;;;;;5145376;27;20039;-66
2023/08/25 00:39:31;;;;;;;33.63;30.02;;;19.30;99.90;;;;;;5139447;27;20039;-66
2023/08/25 00:41:56;;;;;;;44.05;32.55;;;19.30;99.90;;;;;;5142638;27;20034;-68
2023/08/25 00:44:22;;;;;;;41.03;35.15;;;19.30;99.90;;;;;;5142132;27;20066;-68
2023/08/25 00:46:49;;;;;;;36.50;32.40;;;19.40;99.90;;;;;;5119351;27;20108;-67
2023/08/25 00:49:15;;;;;;;38.05;32.28;;;19.40;99.90;;;;;;5142266;27;20486;-67
2023/08/25 00:51:40;;;;;;;38.50;34.33;;;19.40;99.90;;;;;;5123410;27;20041;-66
2023/08/25 00:54:06;;;;;;;39.47;34.35;;;19.40;99.90;;;;;;5138900;27;20054;-68
2023/08/25 00:56:33;;;;;;;39.60;34.80;;;19.40;99.90;;;;;;5144388;27;20034;-67
2023/08/25 00:58:59;;;;;;;39.22;32.75;;;19.40;99.90;;;;;;5140595;27;20051;-66
2023/08/25 01:01:25;;;;;;;40.55;33.85;;;19.50;99.90;;;;;;5138565;27;20039;-67
2023/08/25 01:03:52;;;;;;;43.88;35.67;;;19.50;99.90;;;;;;5138891;27;20478;-67
2023/08/25 01:06:17;;;;;;;41.58;33.47;;;19.40;99.90;;;;;;5145495;27;20039;-68
2023/08/25 01:08:43;;;;;;;39.63;32.38;;;19.40;99.90;;;;;;5138613;27;20128;-66
2023/08/25 01:11:20;;;;;;;42.63;32.92;;;19.40;99.90;;;;;;5140134;27;20065;-68
2023/08/25 01:14:12;;;;;;;38.28;31.05;;;19.40;99.90;;;;;;5123750;27;20035;-67
2023/08/25 01:16:48;;;;;;;36.22;30.83;;;19.40;99.90;;;;;;5141152;27;20138;-68
2023/08/25 01:19:44;;;;;;;40.28;32.65;;;19.40;99.90;;;;;;5140260;27;20053;-66
2023/08/25 01:22:17;;;;;;;47.15;34.05;;;19.40;99.90;;;;;;5142163;27;20046;-66
2023/08/25 01:24:46;;;;;;;38.53;31.00;;;19.40;99.90;;;;;;5145566;27;20390;-67
2023/08/25 01:27:13;;;;;;;43.95;34.33;;;19.40;99.90;;;;;;5139027;27;20042;-66
2023/08/25 01:29:42;;;;;;;42.75;34.33;;;19.40;99.90;;;;;;5141974;27;20913;-66
2023/08/25 01:32:07;;;;;;;42.28;36.08;;;19.40;99.90;;;;;;5141906;27;20103;-66
2023/08/25 01:34:33;;;;;;;42.45;36.42;;;19.40;99.90;;;;;;5141205;27;20098;-69
2023/08/25 01:37:13;;;;;;;43.28;36.47;;;19.40;99.90;;;;;;5146029;27;20050;-66
2023/08/25 01:39:41;;;;;;;46.33;37.10;;;19.40;99.90;;;;;;5143899;27;20107;-67
2023/08/25 01:42:08;;;;;;;44.10;36.08;;;19.40;99.90;;;;;;5142023;27;20042;-67
2023/08/25 01:44:35;;;;;;;45.50;37.55;;;19.40;99.90;;;;;;5149580;27;20548;-66
2023/08/25 01:47:04;;;;;;;40.20;35.13;;;19.40;99.90;;;;;;5150208;27;20039;-66
2023/08/25 01:49:31;;;;;;;46.08;37.97;;;19.50;99.90;;;;;;5142209;27;20413;-67
2023/08/25 01:51:58;;;;;;;48.00;36.65;;;19.40;99.90;;;;;;5144812;27;20043;-67
2023/08/25 01:54:24;;;;;;;48.63;36.72;;;19.50;99.90;;;;;;5144804;27;20042;-68
2023/08/25 01:56:49;;;;;;;42.78;35.67;;;19.40;99.90;;;;;;5145382;27;20554;-66
2023/08/25 01:59:15;;;;;;;47.40;37.60;;;19.40;99.90;;;;;;5145562;27;20031;-66
2023/08/25 02:01:41;;;;;;;42.80;35.15;;;19.40;99.90;;;;;;5133619;27;20776;-67
2023/08/25 02:04:06;;;;;;;39.53;34.63;;;19.30;99.90;;;;;;5142107;27;20047;-66
2023/08/25 02:06:32;;;;;;;43.67;34.20;;;19.40;99.90;;;;;;5146714;27;20032;-67
2023/08/25 02:08:58;;;;;;;39.53;34.03;;;19.30;99.90;;;;;;5141791;27;20119;-67
2023/08/25 02:11:24;;;;;;;42.17;33.78;;;19.30;99.90;;;;;;5144877;27;20047;-69
2023/08/25 02:13:49;;;;;;;45.53;34.22;;;19.20;99.90;;;;;;5126418;27;20050;-67
2023/08/25 02:16:15;;;;;;;38.88;34.03;;;19.20;99.90;;;;;;5145945;27;20042;-65
2023/08/25 02:18:40;;;;;;;48.15;36.35;;;19.20;99.90;;;;;;5148081;27;20050;-67
2023/08/25 02:21:06;;;;;;;39.42;33.13;;;19.10;99.90;;;;;;5141758;27;20480;-67
2023/08/25 02:23:32;;;;;;;45.67;35.55;;;19.10;99.90;;;;;;5129975;27;20095;-66
2023/08/25 02:25:58;;;;;;;45.05;35.00;;;19.10;99.90;;;;;;5147689;27;20124;-67
2023/08/25 02:28:23;;;;;;;40.85;33.53;;;19.00;99.90;;;;;;5144099;27;20085;-67
2023/08/25 02:30:49;;;;;;;43.45;34.83;;;19.00;99.90;;;;;;5147966;27;20466;-67
2023/08/25 02:33:15;;;;;;;40.72;35.80;;;19.00;99.90;;;;;;5141846;27;20608;-68
2023/08/25 02:35:41;;;;;;;38.17;32.38;;;19.10;99.90;;;;;;5143539;27;20039;-69
2023/08/25 02:38:09;;;;;;;39.90;33.47;;;19.00;99.90;;;;;;5125030;27;20432;-68
2023/08/25 02:40:35;;;;;;;41.08;35.05;;;19.00;99.90;;;;;;5142105;27;20075;-67
2023/08/25 02:43:04;;;;;;;41.97;35.55;;;19.10;99.90;;;;;;5152709;27;20058;-67
2023/08/25 02:45:30;;;;;;;40.33;34.15;;;19.10;99.90;;;;;;5143223;27;20066;-68
2023/08/25 02:47:56;;;;;;;42.83;35.20;;;19.10;99.90;;;;;;5149221;27;20108;-67
2023/08/25 02:50:22;;;;;;;40.78;35.78;;;19.10;99.90;;;;;;5140859;27;20070;-68
2023/08/25 02:52:48;;;;;;;41.13;33.83;;;19.10;99.90;;;;;;5141895;27;20039;-67
2023/08/25 02:55:19;;;;;;;50.42;38.80;;;19.10;99.90;;;;;;5144155;27;20042;-68
2023/08/25 02:57:46;;;;;;;42.25;36.83;;;19.20;99.90;;;;;;5138622;27;20439;-67
2023/08/25 03:00:14;;;;;;;42.92;35.25;;;19.20;99.90;;;;;;5151873;27;20165;-67
2023/08/25 03:02:40;;;;;;;37.78;33.47;;;19.10;99.90;;;;;;5149888;27;20038;-67
2023/08/25 03:05:07;;;;;;;49.15;38.67;;;19.10;99.90;;;;;;5150354;27;20042;-66
2023/08/25 03:07:35;;;;;;;45.55;34.33;;;19.20;99.90;;;;;;5143597;27;20131;-67
2023/08/25 03:10:02;;;;;;;51.40;39.50;;;19.10;99.90;;;;;;5150126;27;20179;-68
2023/08/25 03:12:28;;;;;;;44.38;36.03;;;19.20;99.90;;;;;;5121888;27;20051;-68
2023/08/25 03:14:54;;;;;;;48.55;38.53;;;19.20;99.90;;;;;;5140426;27;20042;-67
2023/08/25 03:17:20;;;;;;;49.85;38.40;;;19.20;99.90;;;;;;5141588;27;20043;-67
2023/08/25 03:19:45;;;;;;;49.85;37.13;;;19.20;99.90;;;;;;5107787;27;20038;-67
2023/08/25 03:22:11;;;;;;;49.85;39.60;;;19.20;99.90;;;;;;5143033;27;20049;-69
2023/08/25 03:24:37;;;;;;;48.38;38.60;;;19.20;99.90;;;;;;5148444;27;20050;-68
2023/08/25 03:27:03;;;;;;;45.25;38.08;;;19.20;99.90;;;;;;5140426;27;20035;-67
2023/08/25 03:29:31;;;;;;;48.90;38.33;;;19.20;99.90;;;;;;5148671;27;20042;-67
2023/08/25 03:31:57;;;;;;;56.03;39.50;;;19.20;99.90;;;;;;5140883;27;20091;-67
2023/08/25 03:34:23;;;;;;;43.55;35.70;;;19.20;99.90;;;;;;5143191;27;20042;-67
2023/08/25 03:36:48;;;;;;;44.80;36.15;;;19.20;99.90;;;;;;5121241;27;20050;-67
2023/08/25 03:39:14;;;;;;;43.67;35.95;;;19.20;99.90;;;;;;5140298;27;20049;-67
2023/08/25 03:41:39;;;;;;;51.75;37.78;;;19.20;99.90;;;;;;5147640;27;20042;-66
2023/08/25 03:44:05;;;;;;;47.20;35.88;;;19.20;99.90;;;;;;5144238;27;20042;-67
2023/08/25 03:46:33;;;;;;;44.42;36.78;;;19.20;99.90;;;;;;5147050;27;20038;-66
2023/08/25 03:48:59;;;;;;;44.42;36.55;;;19.20;99.90;;;;;;5142742;27;20755;-67
2023/08/25 03:51:25;;;;;;;46.45;35.45;;;19.20;99.90;;;;;;5142670;27;20064;-67
2023/08/25 03:53:51;;;;;;;45.60;36.30;;;19.10;99.90;;;;;;5123950;27;20047;-67
2023/08/25 03:56:16;;;;;;;45.63;35.92;;;19.20;99.90;;;;;;5145906;27;20043;-68
2023/08/25 03:58:42;;;;;;;43.28;34.72;;;19.10;99.90;;;;;;5139842;27;20047;-67
2023/08/25 04:01:08;;;;;;;42.53;32.80;;;19.10;99.90;;;;;;5129060;27;20078;-67
2023/08/25 04:03:34;;;;;;;50.30;38.35;;;19.10;99.90;;;;;;5147053;27;20042;-67
2023/08/25 04:06:00;;;;;;;52.90;38.63;;;19.20;99.90;;;;;;5143174;27;20530;-68
2023/08/25 04:08:26;;;;;;;51.25;35.08;;;19.10;99.90;;;;;;5142326;27;20051;-67
2023/08/25 04:10:52;;;;;;;45.22;35.70;;;19.10;99.90;;;;;;5142957;27;20060;-67
2023/08/25 04:13:18;;;;;;;44.08;36.05;;;19.10;99.90;;;;;;5142372;27;20038;-67
2023/08/25 04:15:44;;;;;;;50.83;37.78;;;19.10;99.90;;;;;;5123761;27;20053;-67
2023/08/25 04:18:09;;;;;;;45.97;35.95;;;19.10;99.90;;;;;;5141755;27;20038;-67
2023/08/25 04:20:35;;;;;;;45.08;34.70;;;19.10;99.90;;;;;;5122035;27;20043;-67
2023/08/25 04:23:04;;;;;;;50.60;39.03;;;19.10;99.90;;;;;;5141968;27;20050;-67
2023/08/25 04:25:30;;;;;;;46.58;33.25;;;19.10;99.90;;;;;;5140603;27;20091;-67
2023/08/25 04:27:59;;;;;;;51.75;39.30;;;19.10;99.90;;;;;;5139518;27;20375;-67
2023/08/25 04:30:24;;;;;;;49.40;39.03;;;19.10;99.90;;;;;;5140138;27;20043;-67
2023/08/25 04:32:51;;;;;;;47.30;36.63;;;19.00;99.90;;;;;;5141396;27;20035;-67
2023/08/25 04:35:16;;;;;;;47.85;37.47;;;19.00;99.90;;;;;;5138343;27;20051;-67
2023/08/25 04:37:47;;;;;;;41.85;34.78;;;19.00;99.90;;;;;;5141615;27;20095;-67
2023/08/25 04:40:16;;;;;;;46.17;36.75;;;19.00;99.90;;;;;;5142195;27;20113;-67
2023/08/25 04:42:42;;;;;;;48.58;35.97;;;19.00;99.90;;;;;;5140778;27;20072;-67
2023/08/25 04:45:11;;;;;;;49.13;36.42;;;19.00;99.90;;;;;;5124985;27;20050;-67
2023/08/25 04:47:38;;;;;;;45.67;35.92;;;19.00;99.90;;;;;;5141578;27;20043;-67
2023/08/25 04:50:07;;;;;;;42.90;34.58;;;18.90;99.90;;;;;;5142819;27;20038;-67
2023/08/25 04:52:36;;;;;;;44.78;35.65;;;19.00;99.90;;;;;;5123900;27;20564;-67
2023/08/25 04:55:03;;;;;;;49.83;35.40;;;19.00;99.90;;;;;;5141659;27;20046;-67
2023/08/25 04:57:28;;;;;;;47.22;37.58;;;19.00;99.90;;;;;;5137084;27;20101;-67
2023/08/25 04:59:54;;;;;;;49.20;37.05;;;19.00;99.90;;;;;;5121232;27;20086;-67
2023/08/25 05:02:20;;;;;;;47.33;35.92;;;18.90;99.90;;;;;;5142027;27;20050;-66
2023/08/25 05:04:46;;;;;;;54.40;38.83;;;19.00;99.90;;;;;;5142420;27;20446;-67
2023/08/25 05:07:11;;;;;;;59.92;42.00;;;19.00;99.90;;;;;;5140990;27;20042;-67
2023/08/25 05:09:37;;;;;;;59.15;40.80;;;19.00;99.90;;;;;;5154401;27;20046;-68
2023/08/25 05:12:03;;;;;;;46.35;36.80;;;19.00;99.90;;;;;;5145576;27;20042;-69
2023/08/25 05:14:29;;;;;;;52.80;36.85;;;19.00;99.90;;;;;;5141778;27;20039;-68
2023/08/25 05:16:54;;;;;;;56.30;37.47;;;19.00;99.90;;;;;;5125395;27;20051;-68
2023/08/25 05:19:21;;;;;;;65.80;42.97;;;19.00;99.90;;;;;;5144459;27;20039;-68
2023/08/25 05:21:46;;;;;;;62.13;39.78;;;19.10;99.90;;;;;;5149362;27;20047;-68
2023/08/25 05:24:26;;;;;;;57.20;42.17;;;19.10;99.90;;;;;;5142822;27;20104;-67
2023/08/25 05:26:52;;;;;;;62.45;41.60;;;19.10;99.90;;;;;;5145327;27;20630;-69
2023/08/25 05:29:25;;;;;;;59.15;40.78;;;19.10;99.90;;;;;;5146066;27;20043;-67
2023/08/25 05:31:51;;;;;;;69.95;43.15;;;19.20;99.90;;;;;;5145759;27;20034;-67
2023/08/25 05:34:17;;;;;;;71.80;43.35;;;19.10;99.90;;;;;;5145963;27;20046;-67
2023/08/25 05:36:43;;;;;;;59.30;42.13;;;19.20;99.90;;;;;;5140140;27;20042;-68
2023/08/25 05:39:08;;;;;;;65.75;42.72;;;19.20;99.90;;;;;;5148012;27;20083;-68
2023/08/25 05:41:34;;;;;;;74.07;43.33;;;19.20;99.90;;;;;;5142807;27;20077;-68
2023/08/25 05:44:01;;;;;;;58.03;40.22;;;19.20;99.90;;;;;;5126850;27;20050;-67
2023/08/25 05:46:28;;;;;;;64.07;42.15;;;19.30;99.90;;;;;;5139769;27;20055;-67
2023/08/25 05:48:54;;;;;;;60.58;42.70;;;19.30;99.90;;;;;;5145627;27;20043;-68
2023/08/25 05:51:19;;;;;;;68.78;43.42;;;19.30;99.90;;;;;;5146006;27;20061;-68
2023/08/25 05:53:45;;;;;;;69.25;43.25;;;19.30;99.90;;;;;;5125970;27;20050;-67
2023/08/25 05:56:11;;;;;;;64.45;43.95;;;19.30;99.90;;;;;;5141812;27;20100;-68
2023/08/25 05:58:36;;;;;;;62.70;41.90;;;19.30;99.90;;;;;;5145151;27;20070;-68
2023/08/25 06:01:02;;;;;;;67.18;44.55;;;19.30;99.90;;;;;;5124679;27;20035;-67
2023/08/25 06:03:28;;;;;;;56.40;41.95;;;19.30;99.90;;;;;;5141996;27;20533;-67
2023/08/25 06:05:54;;;;;;;66.13;43.05;;;19.30;99.90;;;;;;5142002;27;20039;-69
2023/08/25 06:08:20;;;;;;;64.30;43.85;;;19.40;99.90;;;;;;5144559;27;20051;-67
2023/08/25 06:10:46;;;;;;;64.22;43.47;;;19.40;99.90;;;;;;5146150;27;20043;-67
2023/08/25 06:13:13;;;;;;;66.05;43.40;;;19.50;99.90;;;;;;5143061;27;20043;-68
2023/08/25 06:15:39;;;;;;;66.00;45.20;;;19.50;99.90;;;;;;5139780;27;20050;-67
2023/08/25 06:18:04;;;;;;;67.70;45.45;;;19.50;99.90;;;;;;5141812;27;20039;-68
2023/08/25 06:20:30;;;;;;;71.80;44.08;;;19.50;99.90;;;;;;5147608;27;20092;-71
2023/08/25 06:22:57;;;;;;;84.07;47.10;;;19.50;99.90;;;;;;5141368;27;20100;-67
2023/08/25 06:25:23;;;;;;;77.18;44.08;;;19.50;99.90;;;;;;5143245;27;20046;-73
2023/08/25 06:27:49;;;;;;;72.50;44.17;;;19.50;99.90;;;;;;5144749;27;20130;-66
2023/08/25 06:30:16;;;;;;;76.53;44.42;;;19.60;99.90;;;;;;5137453;27;20118;-71
2023/08/25 06:32:42;;;;;;;75.95;45.50;;;19.60;99.90;;;;;;5144470;27;20652;-66
2023/08/25 06:35:08;;;;;;;70.47;43.97;;;19.70;99.90;;;;;;5146343;27;20039;-69
2023/08/25 06:37:34;;;;;;;84.90;46.75;;;19.70;99.90;;;;;;5142838;27;20390;-68
2023/08/25 06:39:59;;;;;;;72.97;45.20;;;19.70;99.90;;;;;;5129375;27;20409;-68
2023/08/25 06:42:25;;;;;;;72.63;45.25;;;19.70;99.90;;;;;;5142029;27;20477;-66
2023/08/25 06:44:51;;;;;;;80.47;47.35;;;19.70;99.90;;;;;;5141064;27;20176;-69
2023/08/25 06:47:16;;;;;;;75.78;46.33;;;19.70;99.90;;;;;;5140681;27;20772;-69
2023/08/25 06:49:42;;;;;;;80.93;48.72;;;19.80;99.90;;;;;;5142279;27;20051;-67
2023/08/25 06:52:08;;;;;;;78.45;44.65;;;19.80;99.90;;;;;;5143530;27;20027;-70
2023/08/25 06:54:33;;;;;;;77.95;47.42;;;19.80;99.90;;;;;;5136329;27;20483;-69
2023/08/25 06:56:59;;;;;;;74.90;46.05;;;19.90;99.90;;;;;;5124609;27;20050;-68
2023/08/25 06:59:25;;;;;;;76.18;47.20;;;19.90;99.90;;;;;;5143685;27;20035;-67
2023/08/25 07:01:51;;;;;;;79.95;45.90;;;20.00;99.90;;;;;;5124547;27;20414;-68
2023/08/25 07:04:17;;;;;;;80.68;46.15;;;20.00;99.90;;;;;;5124350;27;20042;-69
2023/08/25 07:06:43;;;;;;;86.05;49.22;;;20.00;99.90;;;;;;5143933;27;20041;-69
2023/08/25 07:09:09;;;;;;;81.97;48.65;;;20.10;99.90;;;;;;5119719;27;20489;-68
2023/08/25 07:11:34;;;;;;;71.35;45.55;;;20.00;99.90;;;;;;5120157;27;20407;-67
2023/08/25 07:14:00;;;;;;;79.60;47.00;;;20.10;99.90;;;;;;5120018;27;20035;-67
2023/08/25 07:16:26;;;;;;;84.47;48.75;;;20.10;99.90;;;;;;5121138;27;20406;-70
2023/08/25 07:18:51;;;;;;;73.72;47.13;;;20.10;99.90;;;;;;5121505;27;20039;-68
2023/08/25 07:21:17;;;;;;;76.18;47.95;;;20.10;99.90;;;;;;5120167;27;20039;-68
2023/08/25 07:23:43;;;;;;;70.20;46.22;;;20.10;99.90;;;;;;5118536;27;20197;-68
2023/08/25 07:26:09;;;;;;;80.32;46.85;;;20.10;99.90;;;;;;5118502;27;20433;-68
2023/08/25 07:28:34;;;;;;;74.47;46.80;;;20.10;99.90;;;;;;5123107;27;20046;-68
2023/08/25 07:31:00;;;;;;;82.28;46.95;;;20.10;99.90;;;;;;5122654;27;20511;-69
2023/08/25 07:33:26;;;;;;;74.95;46.15;;;20.20;99.90;;;;;;5121410;27;20034;-68
2023/08/25 07:35:52;;;;;;;74.65;44.92;;;20.20;99.90;;;;;;5119623;27;20049;-71
2023/08/25 07:38:18;;;;;;;73.88;46.50;;;20.10;99.90;;;;;;5119087;27;20043;-68
2023/08/25 07:40:43;;;;;;;73.60;44.20;;;20.10;99.90;;;;;;5115498;27;20051;-67
2023/08/25 07:43:09;;;;;;;71.38;45.45;;;20.10;99.90;;;;;;5120968;27;20383;-69
2023/08/25 07:45:36;;;;;;;76.60;45.78;;;20.20;99.90;;;;;;5116961;27;20456;-68
2023/08/25 07:48:02;;;;;;;91.15;48.35;;;20.20;99.90;;;;;;5122237;27;20081;-67
2023/08/25 07:50:29;;;;;;;68.53;42.70;;;20.20;99.90;;;;;;5122746;27;20078;-72
2023/08/25 07:52:55;;;;;;;66.78;41.00;;;20.20;99.90;;;;;;5120379;27;20437;-70
2023/08/25 07:55:20;;;;;;;67.15;41.38;;;20.20;99.90;;;;;;5119456;27;20071;-68
2023/08/25 07:57:46;;;;;;;58.97;38.35;;;20.20;99.90;;;;;;5117794;27;20513;-68
2023/08/25 08:00:15;;;;;;;65.82;39.40;;;20.30;99.90;;;;;;5125594;27;20044;-67
2023/08/25 08:02:45;;;;;;;70.72;40.33;;;20.40;99.90;;;;;;5119206;27;20039;-68
2023/08/25 08:05:11;;;;;;;58.45;38.50;;;20.40;99.90;;;;;;5122716;27;20104;-68
2023/08/25 08:07:37;;;;;;;53.10;33.10;;;20.50;99.90;;;;;;5126123;27;20054;-67
2023/08/25 08:10:05;;;;;;;51.55;35.90;;;20.60;99.90;;;;;;5141393;27;20054;-67
2023/08/25 08:12:31;;;;;;;57.75;36.05;;;20.60;99.90;;;;;;5140398;27;20075;-68
2023/08/25 08:14:56;;;;;;;59.28;36.47;;;20.70;99.90;;;;;;5148028;27;20081;-67
2023/08/25 08:17:22;;;;;;;52.78;35.08;;;20.70;99.90;;;;;;5143510;27;20041;-68
2023/08/25 08:19:48;;;;;;;47.08;31.95;;;20.80;99.90;;;;;;5142691;27;20031;-68
2023/08/25 08:22:14;;;;;;;59.70;34.00;;;20.80;99.90;;;;;;5141765;27;20082;-71
2023/08/25 08:24:43;;;;;;;52.13;33.85;;;20.90;99.90;;;;;;5139575;27;20074;-70
2023/08/25 08:27:10;;;;;;;53.20;34.47;;;20.90;99.90;;;;;;5143036;27;20653;-67
2023/08/25 08:29:35;;;;;;;51.65;33.47;;;20.90;99.90;;;;;;5144895;27;20490;-67
2023/08/25 08:32:04;;;;;;;49.65;33.78;;;20.90;99.90;;;;;;5139731;27;20126;-69
2023/08/25 08:34:29;;;;;;;50.85;34.42;;;20.90;99.90;;;;;;5140680;27;20092;-68
2023/08/25 08:36:55;;;;;;;49.58;34.13;;;21.00;99.90;;;;;;5143409;27;20047;-67
2023/08/25 08:39:21;;;;;;;47.78;33.45;;;21.00;99.90;;;;;;5143410;27;20472;-68
2023/08/25 08:41:48;;;;;;;45.00;32.78;;;21.00;99.90;;;;;;5142512;27;20061;-68
2023/08/25 08:44:17;;;;;;;46.55;31.42;;;21.10;99.90;;;;;;5147060;27;20046;-66
2023/08/25 08:46:43;;;;;;;48.92;31.33;;;21.10;99.90;;;;;;5146276;27;20043;-67
2023/08/25 08:49:10;;;;;;;44.50;29.63;;;21.20;99.90;;;;;;5146865;27;20046;-66
2023/08/25 08:51:37;;;;;;;41.70;28.05;;;21.20;99.90;;;;;;5150127;27;20050;-70
2023/08/25 08:54:05;;;;;;;42.67;28.88;;;21.30;99.90;;;;;;5128599;27;20047;-67
2023/08/25 08:56:31;;;;;;;42.90;29.42;;;21.40;99.90;;;;;;5128326;27;20086;-66
2023/08/25 08:58:57;;;;;;;40.63;26.17;;;21.40;99.90;;;;;;5146311;27;20552;-70
2023/08/25 09:01:23;;;;;;;41.63;28.55;;;21.50;99.90;;;;;;5154970;27;20122;-68
2023/08/25 09:03:51;;;;;;;39.40;28.33;;;21.60;99.90;;;;;;5146835;27;20554;-67
2023/08/25 09:06:16;;;;;;;43.25;28.58;;;21.60;99.90;;;;;;5143293;27;20047;-68
2023/08/25 09:08:43;;;;;;;40.72;28.35;;;21.60;99.90;;;;;;5143481;27;20104;-67
2023/08/25 09:11:08;;;;;;;43.88;28.23;;;21.60;99.90;;;;;;5131641;27;20081;-68
2023/08/25 09:13:35;;;;;;;38.45;26.58;;;21.70;99.90;;;;;;5148487;27;20077;-67
2023/08/25 09:16:11;;;;;;;41.03;30.13;;;21.60;99.90;;;;;;5146380;27;20042;-69
2023/08/25 09:18:37;;;;;;;40.05;28.08;;;21.60;99.90;;;;;;5144273;27;20055;-68
2023/08/25 09:21:13;;;;;;;43.60;28.10;;;21.60;99.90;;;;;;5147344;27;20041;-67
2023/08/25 09:23:54;;;;;;;45.50;27.73;;;21.60;99.90;;;;;;5143104;27;20047;-65
2023/08/25 09:26:20;;;;;;;49.50;28.63;;;21.50;99.90;;;;;;5144542;27;20046;-68
2023/08/25 09:28:46;;;;;;;41.70;27.35;;;21.60;99.90;;;;;;5146574;27;20482;-67
2023/08/25 09:31:21;;;;;;;41.42;28.15;;;21.60;99.90;;;;;;5140132;27;20050;-73
2023/08/25 09:33:49;;;;;;;40.50;27.23;;;21.60;99.90;;;;;;5142055;27;20050;-67
2023/08/25 09:36:15;;;;;;;44.05;26.70;;;21.70;99.90;;;;;;5150683;27;20498;-67
2023/08/25 09:38:47;;;;;;;37.67;26.70;;;21.70;99.90;;;;;;5143728;27;20066;-67
2023/08/25 09:41:25;;;;;;;40.30;28.17;;;21.70;99.90;;;;;;5146498;27;20062;-67
2023/08/25 09:43:58;;;;;;;38.72;26.42;;;21.70;99.90;;;;;;5143077;27;20104;-67
2023/08/25 09:46:31;;;;;;;41.42;27.33;;;21.70;99.90;;;;;;5143112;27;20045;-67
2023/08/25 09:49:03;;;;;;;42.03;28.33;;;21.70;99.90;;;;;;5145744;27;20047;-68
2023/08/25 09:51:36;;;;;;;43.17;29.20;;;21.70;99.90;;;;;;5145695;27;20119;-66
2023/08/25 09:54:09;;;;;;;43.03;29.55;;;21.80;99.90;;;;;;5142875;27;20091;-68
2023/08/25 09:56:36;;;;;;;41.60;29.58;;;21.90;99.90;;;;;;5142947;27;20658;-69
2023/08/25 09:59:06;;;;;;;41.55;29.40;;;21.90;99.90;;;;;;5145008;27;20035;-68
2023/08/25 10:01:34;;;;;;;50.88;30.40;;;22.00;99.90;;;;;;5123470;27;20062;-67
2023/08/25 10:04:01;;;;;;;40.80;28.58;;;22.00;99.90;;;;;;5143402;27;20046;-68
2023/08/25 10:06:30;;;;;;;42.05;28.38;;;21.90;99.90;;;;;;5146969;27;20491;-67
2023/08/25 10:08:56;;;;;;;41.33;29.67;;;22.00;99.90;;;;;;5125812;27;20057;-69
2023/08/25 10:11:26;;;;;;;39.47;28.15;;;22.00;99.90;;;;;;5145964;27;20066;-70
2023/08/25 10:13:54;;;;;;;42.80;29.73;;;22.00;99.90;;;;;;5145962;27;20043;-68
2023/08/25 10:16:20;;;;;;;41.88;29.58;;;21.90;99.90;;;;;;5143171;27;20031;-68
2023/08/25 10:18:48;;;;;;;39.03;28.58;;;21.90;99.90;;;;;;5147946;27;20089;-67
2023/08/25 10:21:18;;;;;;;40.05;29.15;;;21.90;99.90;;;;;;5147327;27;20043;-69
2023/08/25 10:23:45;;;;;;;40.78;28.55;;;21.90;99.90;;;;;;5140235;27;20038;-68
2023/08/25 10:26:12;;;;;;;46.17;30.48;;;21.90;99.90;;;;;;5144882;27;20115;-69
2023/08/25 10:28:38;;;;;;;48.67;31.90;;;21.90;99.90;;;;;;5144576;27;20509;-68
2023/08/25 10:31:05;;;;;;;47.70;30.95;;;21.90;99.90;;;;;;5126812;27;20089;-68
2023/08/25 10:33:49;;;;;;;45.78;29.65;;;21.90;99.90;;;;;;5124989;27;20503;-69
2023/08/25 10:36:18;;;;;;;44.35;30.77;;;21.90;99.90;;;;;;5127733;27;20065;-69
2023/08/25 10:39:05;;;;;;;43.03;29.77;;;21.90;99.90;;;;;;5142252;27;20047;-67
2023/08/25 10:41:39;;;;;;;42.92;29.60;;;21.90;99.90;;;;;;5150796;27;20047;-67
2023/08/25 10:44:09;;;;;;;39.70;28.83;;;21.80;99.90;;;;;;5144533;27;20078;-67
2023/08/25 10:46:38;;;;;;;44.15;31.40;;;21.80;99.90;;;;;;5138305;27;20051;-68
2023/08/25 10:49:07;;;;;;;42.65;29.48;;;21.80;99.90;;;;;;5145076;27;20038;-69
2023/08/25 10:51:36;;;;;;;43.17;29.23;;;21.80;99.90;;;;;;5151997;27;20122;-69
2023/08/25 10:54:03;;;;;;;42.80;29.70;;;21.80;99.90;;;;;;5141438;27;20084;-69
2023/08/25 10:56:28;;;;;;;45.33;30.02;;;21.70;99.90;;;;;;5127814;27;20050;-67
2023/08/25 10:59:03;;;;;;;40.42;29.15;;;21.70;99.90;;;;;;5144294;27;20457;-67
2023/08/25 11:01:38;;;;;;;42.60;30.25;;;21.80;99.90;;;;;;5138646;27;20063;-68
2023/08/25 11:04:12;;;;;;;43.53;31.02;;;21.80;99.90;;;;;;5142958;27;20490;-67
2023/08/25 11:06:46;;;;;;;44.03;30.58;;;21.70;99.90;;;;;;5141745;27;20039;-68
2023/08/25 11:09:18;;;;;;;43.55;31.17;;;21.70;99.90;;;;;;5143556;27;20569;-66
2023/08/25 11:11:45;;;;;;;46.83;30.90;;;21.70;99.90;;;;;;5144713;27;20461;-67
2023/08/25 11:14:12;;;;;;;45.30;31.92;;;21.70;99.90;;;;;;5143527;27;20054;-67
2023/08/25 11:16:40;;;;;;;45.92;33.35;;;21.70;99.90;;;;;;5144002;27;20034;-68
2023/08/25 11:19:09;;;;;;;49.15;33.63;;;21.70;99.90;;;;;;5136933;27;20583;-68
2023/08/25 11:21:35;;;;;;;50.05;33.78;;;21.60;99.90;;;;;;5144455;27;20147;-67
2023/08/25 11:24:01;;;;;;;47.65;31.92;;;21.50;99.90;;;;;;5145477;27;20053;-71
2023/08/25 11:26:27;;;;;;;46.10;32.67;;;21.50;99.90;;;;;;5124141;27;20043;-73
2023/08/25 11:28:53;;;;;;;45.05;31.92;;;21.50;99.90;;;;;;5144129;27;20045;-71
2023/08/25 11:31:23;;;;;;;41.92;31.73;;;21.50;99.90;;;;;;5125398;27;20093;-73
2023/08/25 11:33:52;;;;;;;44.60;31.10;;;21.60;99.90;;;;;;5145226;27;20047;-68
2023/08/25 11:36:18;;;;;;;42.28;31.10;;;21.60;99.90;;;;;;5140899;27;20058;-69
2023/08/25 11:38:49;;;;;;;45.38;33.65;;;21.60;99.90;;;;;;5125144;27;20039;-67
2023/08/25 11:41:15;;;;;;;41.97;31.92;;;21.60;99.90;;;;;;5125230;27;20116;-69
2023/08/25 11:43:41;;;;;;;43.08;31.92;;;21.70;99.90;;;;;;5142399;27;20054;-68
2023/08/25 11:46:07;;;;;;;40.25;28.88;;;21.80;99.90;;;;;;5142262;27;20047;-68
2023/08/25 11:48:33;;;;;;;39.20;29.60;;;21.80;99.90;;;;;;5151808;27;20063;-68
2023/08/25 11:50:59;;;;;;;40.72;30.40;;;21.90;99.90;;;;;;5140713;27;20054;-69
2023/08/25 11:53:25;;;;;;;41.55;29.88;;;22.00;99.90;;;;;;5137853;27;20043;-68
2023/08/25 11:56:02;;;;;;;39.88;29.30;;;22.10;99.90;;;;;;5141697;27;20054;-67
2023/08/25 11:58:35;;;;;;;36.75;26.30;;;22.10;99.90;;;;;;5143594;27;20050;-67
2023/08/25 12:01:08;;;;;;;36.25;28.70;;;22.20;99.90;;;;;;5141434;27;20443;-65
2023/08/25 12:03:35;;;;;;;36.75;27.40;;;22.40;99.90;;;;;;5140218;27;20043;-68
2023/08/25 12:06:08;;;;;;;39.22;27.70;;;22.50;99.90;;;;;;5128033;27;20035;-67
2023/08/25 12:08:35;;;;;;;36.65;26.92;;;22.60;99.90;;;;;;5140053;27;20440;-68
2023/08/25 12:11:01;;;;;;;38.30;26.73;;;22.70;99.90;;;;;;5140948;27;20471;-67
2023/08/25 12:13:29;;;;;;;36.75;27.25;;;22.70;99.90;;;;;;5124516;27;20050;-68
2023/08/25 12:15:56;;;;;;;35.58;26.10;;;22.80;99.90;;;;;;5124454;27;20045;-68
2023/08/25 12:18:22;;;;;;;36.67;27.05;;;22.90;99.90;;;;;;5142146;27;20046;-68
2023/08/25 12:20:49;;;;;;;38.30;28.63;;;23.00;99.90;;;;;;5143688;27;20039;-69
2023/08/25 12:23:15;;;;;;;35.47;27.85;;;23.00;99.90;;;;;;5141681;27;20095;-68
2023/08/25 12:25:44;;;;;;;40.47;28.90;;;23.30;99.90;;;;;;5121387;27;20063;-68
2023/08/25 12:28:13;;;;;;;38.17;28.95;;;23.50;99.90;;;;;;5147980;27;20062;-68